KEVB

New Smyrna Beach Municipal Airport

New Smyrna Beach, Florida, USA
METAR KEVB 241448Z 36004KT 10SM SCT025 31/25 A3008
Observed Flight Rules
Jun-24 @ 14:48 UTC (17 minutes ago) Visual Flight Rules
Wind Visibility Clouds
360° at 4 knots 10 miles
  • Scattered at 2,500' AGL
Temperatures Readings
Current 31°C / 88°F
Dewpoint 25°C / 77°F
Humidity 70%
Altimeter 30.08" Hg
Pressure 1019 hPa
Elevation 3
METAR KEVB 241448Z 36004KT 10SM SCT025 31/25 A3008
Observed Flight Rules
Jun-24 @ 14:48 UTC
(17 minutes ago)
VFR
Wind Visibility
360° at 4 knots 10 miles
Clouds
  • Scattered at 2,500' AGL
Temperature Dewpoint
31°C / 88°F 25°C / 77°F
Humidity Altimeter Pressure
70% 30.08" Hg 1019 hPa